sensor_id;sensor_type;location;lat;lon;timestamp;pressure;altitude;pressure_sealevel;temperature;humidity
18784;BME280;9520;50.954;6.968;2023-05-02T00:00:06;101267.28;;;19.84;49.89
18784;BME280;9520;50.954;6.968;2023-05-02T00:00:28;101273.47;;;19.86;49.71
18784;BME280;9520;50.954;6.968;2023-05-02T00:00:50;101276.16;;;19.86;49.47
18784;BME280;9520;50.954;6.968;2023-05-02T00:01:13;101276.16;;;19.86;49.24
18784;BME280;9520;50.954;6.968;2023-05-02T00:01:34;101273.47;;;19.86;49.31
18784;BME280;9520;50.954;6.968;2023-05-02T00:01:56;101268.06;;;19.88;49.88
18784;BME280;9520;50.954;6.968;2023-05-02T00:02:19;101270.66;;;19.89;49.71
18784;BME280;9520;50.954;6.968;2023-05-02T00:02:41;101272.41;;;19.90;49.74
18784;BME280;9520;50.954;6.968;2023-05-02T00:03:03;101276.88;;;19.90;49.56
18784;BME280;9520;50.954;6.968;2023-05-02T00:03:26;101266.38;;;19.85;49.46
18784;BME280;9520;50.954;6.968;2023-05-02T00:03:49;101265.28;;;19.89;49.59
18784;BME280;9520;50.954;6.968;2023-05-02T00:04:11;101273.25;;;19.91;49.71
18784;BME280;9520;50.954;6.968;2023-05-02T00:04:34;101275.06;;;19.90;49.54
18784;BME280;9520;50.954;6.968;2023-05-02T00:04:56;101266.09;;;19.91;49.49
18784;BME280;9520;50.954;6.968;2023-05-02T00:05:19;101270.72;;;19.88;49.45
18784;BME280;9520;50.954;6.968;2023-05-02T00:05:41;101269.00;;;19.87;49.45
18784;BME280;9520;50.954;6.968;2023-05-02T00:06:03;101269.97;;;19.84;49.09
18784;BME280;9520;50.954;6.968;2023-05-02T00:06:25;101267.38;;;19.82;49.07
18784;BME280;9520;50.954;6.968;2023-05-02T00:06:47;101267.38;;;19.82;49.37
18784;BME280;9520;50.954;6.968;2023-05-02T00:07:09;101271.09;;;19.78;49.67
18784;BME280;9520;50.954;6.968;2023-05-02T00:07:31;101269.41;;;19.77;49.62
18784;BME280;9520;50.954;6.968;2023-05-02T00:07:53;101274.66;;;19.79;49.52
18784;BME280;9520;50.954;6.968;2023-05-02T00:08:16;101275.53;;;19.79;49.54
18784;BME280;9520;50.954;6.968;2023-05-02T00:08:38;101273.88;;;19.77;49.66
18784;BME280;9520;50.954;6.968;2023-05-02T00:08:59;101267.72;;;19.75;49.27
18784;BME280;9520;50.954;6.968;2023-05-02T00:09:21;101270.44;;;19.73;48.83
18784;BME280;9520;50.954;6.968;2023-05-02T00:09:44;101266.06;;;19.72;48.96
18784;BME280;9520;50.954;6.968;2023-05-02T00:10:06;101263.47;;;19.69;49.08
18784;BME280;9520;50.954;6.968;2023-05-02T00:10:28;101267.91;;;19.70;49.17
18784;BME280;9520;50.954;6.968;2023-05-02T00:10:50;101273.94;;;19.75;49.90
18784;BME280;9520;50.954;6.968;2023-05-02T00:11:12;101270.38;;;19.75;49.58
18784;BME280;9520;50.954;6.968;2023-05-02T00:11:34;101275.75;;;19.75;49.98
18784;BME280;9520;50.954;6.968;2023-05-02T00:11:56;101261.63;;;19.71;49.65
18784;BME280;9520;50.954;6.968;2023-05-02T00:12:18;101239.81;;;19.60;49.44
18784;BME280;9520;50.954;6.968;2023-05-02T00:12:40;101269.31;;;19.79;49.44
18784;BME280;9520;50.954;6.968;2023-05-02T00:13:02;101268.44;;;19.78;49.29
18784;BME280;9520;50.954;6.968;2023-05-02T00:13:24;101265.03;;;19.75;49.01
18784;BME280;9520;50.954;6.968;2023-05-02T00:13:45;101274.66;;;19.79;49.49
18784;BME280;9520;50.954;6.968;2023-05-02T00:14:07;101278.16;;;19.81;49.58
18784;BME280;9520;50.954;6.968;2023-05-02T00:14:28;101268.44;;;19.78;49.63
18784;BME280;9520;50.954;6.968;2023-05-02T00:14:51;101274.59;;;19.80;49.47
18784;BME280;9520;50.954;6.968;2023-05-02T00:15:12;101271.97;;;19.79;49.55
18784;BME280;9520;50.954;6.968;2023-05-02T00:15:34;101269.44;;;19.76;49.75
18784;BME280;9520;50.954;6.968;2023-05-02T00:16:31;101267.59;;;19.78;49.39
18784;BME280;9520;50.954;6.968;2023-05-02T00:16:54;101277.53;;;19.74;49.64
18784;BME280;9520;50.954;6.968;2023-05-02T00:17:17;101266.97;;;19.71;49.41
18784;BME280;9520;50.954;6.968;2023-05-02T00:17:39;101266.38;;;19.65;49.33
18784;BME280;9520;50.954;6.968;2023-05-02T00:18:02;101267.91;;;19.70;48.96
18784;BME280;9520;50.954;6.968;2023-05-02T00:18:24;101273.25;;;19.70;48.83
18784;BME280;9520;50.954;6.968;2023-05-02T00:18:46;101283.19;;;19.68;48.76
18784;BME280;9520;50.954;6.968;2023-05-02T00:19:09;101276.09;;;19.67;49.11
18784;BME280;9520;50.954;6.968;2023-05-02T00:19:31;101276.97;;;19.68;49.41
18784;BME280;9520;50.954;6.968;2023-05-02T00:19:54;101268.84;;;19.69;49.78
18784;BME280;9520;50.954;6.968;2023-05-02T00:20:16;101275.94;;;19.70;49.93
18784;BME280;9520;50.954;6.968;2023-05-02T00:20:38;101274.19;;;19.69;49.75
18784;BME280;9520;50.954;6.968;2023-05-02T00:21:00;101273.31;;;19.69;49.76
18784;BME280;9520;50.954;6.968;2023-05-02T00:21:22;101273.31;;;19.69;49.23
18784;BME280;9520;50.954;6.968;2023-05-02T00:21:46;101269.00;;;19.66;49.14
18784;BME280;9520;50.954;6.968;2023-05-02T00:22:08;101269.00;;;19.66;49.15
18784;BME280;9520;50.954;6.968;2023-05-02T00:22:30;101274.34;;;19.66;49.69
18784;BME280;9520;50.954;6.968;2023-05-02T00:22:54;101268.16;;;19.64;49.99
18784;BME280;9520;50.954;6.968;2023-05-02T00:23:16;101274.47;;;19.63;49.94
18784;BME280;9520;50.954;6.968;2023-05-02T00:23:37;101274.53;;;19.62;49.78
18784;BME280;9520;50.954;6.968;2023-05-02T00:24:00;101271.84;;;19.62;49.82
18784;BME280;9520;50.954;6.968;2023-05-02T00:24:22;101279.84;;;19.63;49.57
18784;BME280;9520;50.954;6.968;2023-05-02T00:24:43;101271.91;;;19.60;49.27
18784;BME280;9520;50.954;6.968;2023-05-02T00:25:06;101278.09;;;19.62;49.49
18784;BME280;9520;50.954;6.968;2023-05-02T00:25:29;101280.69;;;19.64;49.48
18784;BME280;9520;50.954;6.968;2023-05-02T00:25:50;101267.69;;;19.55;49.60
18784;BME280;9520;50.954;6.968;2023-05-02T00:26:12;101273.72;;;19.60;49.39
18784;BME280;9520;50.954;6.968;2023-05-02T00:26:36;101275.53;;;19.59;49.17
18784;BME280;9520;50.954;6.968;2023-05-02T00:26:58;101282.81;;;19.56;49.36
18784;BME280;9520;50.954;6.968;2023-05-02T00:27:20;101269.50;;;19.54;49.63
18784;BME280;9520;50.954;6.968;2023-05-02T00:27:42;101267.88;;;19.50;49.25
18784;BME280;9520;50.954;6.968;2023-05-02T00:28:04;101282.69;;;19.59;49.35
18784;BME280;9520;50.954;6.968;2023-05-02T00:28:26;101281.84;;;19.58;49.16
18784;BME280;9520;50.954;6.968;2023-05-02T00:28:48;101273.97;;;19.54;48.84
18784;BME280;9520;50.954;6.968;2023-05-02T00:29:10;101280.34;;;19.51;49.27
18784;BME280;9520;50.954;6.968;2023-05-02T00:29:31;101278.53;;;19.52;49.36
18784;BME280;9520;50.954;6.968;2023-05-02T00:29:53;101284.69;;;19.54;49.63
18784;BME280;9520;50.954;6.968;2023-05-02T00:30:16;101281.22;;;19.52;49.52
18784;BME280;9520;50.954;6.968;2023-05-02T00:30:41;101273.38;;;19.47;49.42
18784;BME280;9520;50.954;6.968;2023-05-02T00:31:03;101280.34;;;19.51;48.98
18784;BME280;9520;50.954;6.968;2023-05-02T00:31:25;101285.84;;;19.48;48.93
18784;BME280;9520;50.954;6.968;2023-05-02T00:31:47;101279.63;;;19.48;49.42
18784;BME280;9520;50.954;6.968;2023-05-02T00:32:09;101277.91;;;19.45;49.61
18784;BME280;9520;50.954;6.968;2023-05-02T00:32:31;101286.81;;;19.46;49.76
18784;BME280;9520;50.954;6.968;2023-05-02T00:32:53;101282.34;;;19.46;49.85
18784;BME280;9520;50.954;6.968;2023-05-02T00:33:15;101280.47;;;19.48;49.32
18784;BME280;9520;50.954;6.968;2023-05-02T00:33:37;101288.56;;;19.47;49.43
18784;BME280;9520;50.954;6.968;2023-05-02T00:33:59;101278.97;;;19.41;49.55
18784;BME280;9520;50.954;6.968;2023-05-02T00:34:20;101288.69;;;19.44;49.72
18784;BME280;9520;50.954;6.968;2023-05-02T00:34:42;101278.09;;;19.40;49.36
18784;BME280;9520;50.954;6.968;2023-05-02T00:35:07;101286.16;;;19.39;49.45
18784;BME280;9520;50.954;6.968;2023-05-02T00:35:31;101276.41;;;19.38;49.23
18784;BME280;9520;50.954;6.968;2023-05-02T00:35:53;101286.31;;;19.36;49.09
18784;BME280;9520;50.954;6.968;2023-05-02T00:36:17;101288.97;;;19.36;49.14
18784;BME280;9520;50.954;6.968;2023-05-02T00:36:39;101287.19;;;19.36;49.63
18784;BME280;9520;50.954;6.968;2023-05-02T00:37:00;101280.94;;;19.36;49.56
18784;BME280;9520;50.954;6.968;2023-05-02T00:37:25;101289.13;;;19.33;49.08
18784;BME280;9520;50.954;6.968;2023-05-02T00:37:46;101278.34;;;19.34;49.32
18784;BME280;9520;50.954;6.968;2023-05-02T00:38:09;101283.56;;;19.37;49.00
18784;BME280;9520;50.954;6.968;2023-05-02T00:38:31;101279.19;;;19.35;48.99
18784;BME280;9520;50.954;6.968;2023-05-02T00:38:53;101275.59;;;19.36;49.29
18784;BME280;9520;50.954;6.968;2023-05-02T00:39:14;101283.69;;;19.34;48.92
18784;BME280;9520;50.954;6.968;2023-05-02T00:39:37;101287.31;;;19.33;48.88
18784;BME280;9520;50.954;6.968;2023-05-02T00:39:59;101276.53;;;19.35;49.00
18784;BME280;9520;50.954;6.968;2023-05-02T00:40:21;101278.28;;;19.36;49.33
18784;BME280;9520;50.954;6.968;2023-05-02T00:40:44;101283.56;;;19.37;49.19
18784;BME280;9520;50.954;6.968;2023-05-02T00:41:08;101283.56;;;19.37;49.32
18784;BME280;9520;50.954;6.968;2023-05-02T00:41:29;101289.78;;;19.38;49.18
18784;BME280;9520;50.954;6.968;2023-05-02T00:41:55;101283.56;;;19.37;49.27
18784;BME280;9520;50.954;6.968;2023-05-02T00:42:17;101295.16;;;19.38;49.07
18784;BME280;9520;50.954;6.968;2023-05-02T00:42:40;101287.22;;;19.35;49.07
18784;BME280;9520;50.954;6.968;2023-05-02T00:43:01;101280.91;;;19.37;48.95
18784;BME280;9520;50.954;6.968;2023-05-02T00:43:23;101282.69;;;19.37;48.61
18784;BME280;9520;50.954;6.968;2023-05-02T00:43:44;101293.59;;;19.32;48.52
18784;BME280;9520;50.954;6.968;2023-05-02T00:44:07;101284.69;;;19.32;48.89
18784;BME280;9520;50.954;6.968;2023-05-02T00:44:29;101288.16;;;19.34;48.70
18784;BME280;9520;50.954;6.968;2023-05-02T00:44:51;101294.47;;;19.33;48.56
18784;BME280;9520;50.954;6.968;2023-05-02T00:45:12;101266.47;;;19.20;49.16
18784;BME280;9520;50.954;6.968;2023-05-02T00:45:36;101294.38;;;19.34;48.75
18784;BME280;9520;50.954;6.968;2023-05-02T00:45:58;101285.63;;;19.31;48.66
18784;BME280;9520;50.954;6.968;2023-05-02T00:46:22;101285.81;;;19.26;48.79
18784;BME280;9520;50.954;6.968;2023-05-02T00:46:44;101290.97;;;19.31;48.95
18784;BME280;9520;50.954;6.968;2023-05-02T00:47:07;101293.66;;;19.31;49.08
18784;BME280;9520;50.954;6.968;2023-05-02T00:47:29;101294.66;;;19.28;48.81
18784;BME280;9520;50.954;6.968;2023-05-02T00:47:50;101295.53;;;19.29;49.26
18784;BME280;9520;50.954;6.968;2023-05-02T00:48:12;101291.09;;;19.28;49.64
18784;BME280;9520;50.954;6.968;2023-05-02T00:48:35;101298.13;;;19.30;49.12
18784;BME280;9520;50.954;6.968;2023-05-02T00:48:57;101299.19;;;19.26;49.16
18784;BME280;9520;50.954;6.968;2023-05-02T00:49:19;101297.38;;;19.27;49.26
18784;BME280;9520;50.954;6.968;2023-05-02T00:49:41;101297.38;;;19.27;49.06
18784;BME280;9520;50.954;6.968;2023-05-02T00:50:06;101297.44;;;19.25;48.95
18784;BME280;9520;50.954;6.968;2023-05-02T00:50:28;101298.56;;;19.20;48.44
18784;BME280;9520;50.954;6.968;2023-05-02T00:50:50;101302.19;;;19.19;48.58
18784;BME280;9520;50.954;6.968;2023-05-02T00:51:12;101302.97;;;19.21;48.97
18784;BME280;9520;50.954;6.968;2023-05-02T00:51:34;101295.00;;;19.19;49.07
18784;BME280;9520;50.954;6.968;2023-05-02T00:51:57;101299.44;;;19.20;49.15
18784;BME280;9520;50.954;6.968;2023-05-02T00:52:18;101301.13;;;19.23;49.64
18784;BME280;9520;50.954;6.968;2023-05-02T00:52:41;101313.69;;;19.21;49.59
18784;BME280;9520;50.954;6.968;2023-05-02T00:53:03;101303.84;;;19.21;48.94
18784;BME280;9520;50.954;6.968;2023-05-02T00:53:25;101308.47;;;19.18;48.60
18784;BME280;9520;50.954;6.968;2023-05-02T00:53:47;101310.22;;;19.19;48.67
18784;BME280;9520;50.954;6.968;2023-05-02T00:54:11;101306.59;;;19.20;48.48
18784;BME280;9520;50.954;6.968;2023-05-02T00:54:33;101306.53;;;19.21;48.41
18784;BME280;9520;50.954;6.968;2023-05-02T00:54:54;101309.25;;;19.20;48.48
18784;BME280;9520;50.954;6.968;2023-05-02T00:55:16;101311.00;;;19.21;48.49
18784;BME280;9520;50.954;6.968;2023-05-02T00:55:39;101312.81;;;19.20;48.14
18784;BME280;9520;50.954;6.968;2023-05-02T00:56:01;101309.34;;;19.18;48.28
18784;BME280;9520;50.954;6.968;2023-05-02T00:56:23;101310.31;;;19.16;48.33
18784;BME280;9520;50.954;6.968;2023-05-02T00:56:45;101302.25;;;19.17;48.92
18784;BME280;9520;50.954;6.968;2023-05-02T00:57:07;101304.00;;;19.18;49.09
18784;BME280;9520;50.954;6.968;2023-05-02T00:57:29;101310.13;;;19.20;49.15
18784;BME280;9520;50.954;6.968;2023-05-02T00:57:51;101306.59;;;19.20;48.83
18784;BME280;9520;50.954;6.968;2023-05-02T00:58:14;101296.25;;;19.11;49.07
18784;BME280;9520;50.954;6.968;2023-05-02T00:58:37;101315.66;;;19.16;49.46
18784;BME280;9520;50.954;6.968;2023-05-02T00:59:01;101313.00;;;19.16;49.46
18784;BME280;9520;50.954;6.968;2023-05-02T00:59:23;101309.41;;;19.17;48.95
18784;BME280;9520;50.954;6.968;2023-05-02T00:59:46;101308.56;;;19.15;48.87
18784;BME280;9520;50.954;6.968;2023-05-02T01:00:10;101306.72;;;19.17;48.88
18784;BME280;9520;50.954;6.968;2023-05-02T01:00:41;101310.13;;;19.20;48.89
18784;BME280;9520;50.954;6.968;2023-05-02T01:01:13;101312.81;;;19.20;49.05
18784;BME280;9520;50.954;6.968;2023-05-02T01:01:46;101313.00;;;19.16;48.55
18784;BME280;9520;50.954;6.968;2023-05-02T01:02:24;101316.50;;;19.18;48.70
18784;BME280;9520;50.954;6.968;2023-05-02T01:02:58;101317.41;;;19.17;48.68
18784;BME280;9520;50.954;6.968;2023-05-02T01:03:31;101308.66;;;19.13;48.33
18784;BME280;9520;50.954;6.968;2023-05-02T01:04:05;101309.63;;;19.11;48.61
18784;BME280;9520;50.954;6.968;2023-05-02T01:04:39;101312.06;;;19.17;49.08
18784;BME280;9520;50.954;6.968;2023-05-02T01:05:10;101317.38;;;19.18;49.16
18784;BME280;9520;50.954;6.968;2023-05-02T01:05:40;101313.72;;;19.19;48.86
18784;BME280;9520;50.954;6.968;2023-05-02T01:06:17;101314.69;;;19.18;48.54
18784;BME280;9520;50.954;6.968;2023-05-02T01:06:52;101317.22;;;19.21;48.97
18784;BME280;9520;50.954;6.968;2023-05-02T01:07:27;101317.19;;;19.23;49.29
18784;BME280;9520;50.954;6.968;2023-05-02T01:08:09;101313.69;;;19.21;50.05
18784;BME280;9520;50.954;6.968;2023-05-02T01:08:35;101321.66;;;19.22;49.80
18784;BME280;9520;50.954;6.968;2023-05-02T01:09:08;101318.16;;;19.20;49.40
18784;BME280;9520;50.954;6.968;2023-05-02T01:09:39;101319.84;;;19.23;49.16
18784;BME280;9520;50.954;6.968;2023-05-02T01:10:11;101320.03;;;19.18;48.56
18784;BME280;9520;50.954;6.968;2023-05-02T01:10:46;101328.84;;;19.20;48.87
18784;BME280;9520;50.954;6.968;2023-05-02T01:11:14;101324.50;;;19.18;48.70
18784;BME280;9520;50.954;6.968;2023-05-02T01:11:43;101328.84;;;19.20;48.99
18784;BME280;9520;50.954;6.968;2023-05-02T01:12:15;101325.38;;;19.18;49.39
18784;BME280;9520;50.954;6.968;2023-05-02T01:12:41;101326.19;;;19.20;49.33
18784;BME280;9520;50.954;6.968;2023-05-02T01:13:08;101327.97;;;19.20;49.09
18784;BME280;9520;50.954;6.968;2023-05-02T01:13:32;101332.34;;;19.22;49.08
18784;BME280;9520;50.954;6.968;2023-05-02T01:13:57;101327.88;;;19.23;48.91
18784;BME280;9520;50.954;6.968;2023-05-02T01:14:20;101331.44;;;19.23;48.70
18784;BME280;9520;50.954;6.968;2023-05-02T01:14:46;101329.69;;;19.22;48.71
18784;BME280;9520;50.954;6.968;2023-05-02T01:15:15;101326.13;;;19.22;49.07
18784;BME280;9520;50.954;6.968;2023-05-02T01:15:38;101329.72;;;19.21;48.88
18784;BME280;9520;50.954;6.968;2023-05-02T01:16:02;101314.06;;;19.12;48.91
18784;BME280;9520;50.954;6.968;2023-05-02T01:16:26;101330.59;;;19.21;48.94
18784;BME280;9520;50.954;6.968;2023-05-02T01:16:49;101330.56;;;19.23;49.42
18784;BME280;9520;50.954;6.968;2023-05-02T01:17:14;101327.88;;;19.23;49.48
18784;BME280;9520;50.954;6.968;2023-05-02T01:17:37;101325.25;;;19.21;49.35
18784;BME280;9520;50.954;6.968;2023-05-02T01:18:01;101325.31;;;19.20;49.40
18784;BME280;9520;50.954;6.968;2023-05-02T01:18:28;101330.66;;;19.20;49.23
18784;BME280;9520;50.954;6.968;2023-05-02T01:18:51;101330.66;;;19.20;49.14
18784;BME280;9520;50.954;6.968;2023-05-02T01:19:21;101323.50;;;19.20;48.63
18784;BME280;9520;50.954;6.968;2023-05-02T01:19:49;101319.22;;;19.16;49.00
18784;BME280;9520;50.954;6.968;2023-05-02T01:20:18;101333.28;;;19.21;49.29
18784;BME280;9520;50.954;6.968;2023-05-02T01:20:43;101334.19;;;19.20;49.02
18784;BME280;9520;50.954;6.968;2023-05-02T01:21:09;101329.72;;;19.21;48.83
18784;BME280;9520;50.954;6.968;2023-05-02T01:21:31;101323.63;;;19.17;48.47
18784;BME280;9520;50.954;6.968;2023-05-02T01:21:55;101339.50;;;19.22;48.14
18784;BME280;9520;50.954;6.968;2023-05-02T01:22:18;101335.06;;;19.21;48.62
18784;BME280;9520;50.954;6.968;2023-05-02T01:22:43;101338.69;;;19.20;49.02
18784;BME280;9520;50.954;6.968;2023-05-02T01:23:10;101338.56;;;19.23;48.89
18784;BME280;9520;50.954;6.968;2023-05-02T01:23:40;101333.22;;;19.23;48.76
18784;BME280;9520;50.954;6.968;2023-05-02T01:24:07;101331.47;;;19.22;48.24
18784;BME280;9520;50.954;6.968;2023-05-02T01:24:40;101333.31;;;19.20;48.09
18784;BME280;9520;50.954;6.968;2023-05-02T01:25:08;101335.06;;;19.21;48.28
18784;BME280;9520;50.954;6.968;2023-05-02T01:25:42;101334.16;;;19.22;48.47
18784;BME280;9520;50.954;6.968;2023-05-02T01:26:15;101336.81;;;19.22;48.74
18784;BME280;9520;50.954;6.968;2023-05-02T01:26:44;101328.81;;;19.22;48.73
18784;BME280;9520;50.954;6.968;2023-05-02T01:27:20;101333.31;;;19.20;48.52
18784;BME280;9520;50.954;6.968;2023-05-02T01:27:50;101335.94;;;19.21;48.12
18784;BME280;9520;50.954;6.968;2023-05-02T01:28:28;101338.69;;;19.20;48.00
18784;BME280;9520;50.954;6.968;2023-05-02T01:28:58;101334.28;;;19.19;48.91
18784;BME280;9520;50.954;6.968;2023-05-02T01:29:21;101329.03;;;19.16;49.12
18784;BME280;9520;50.954;6.968;2023-05-02T01:29:44;101338.81;;;19.17;48.97
18784;BME280;9520;50.954;6.968;2023-05-02T01:30:09;101322.13;;;19.10;48.91
18784;BME280;9520;50.954;6.968;2023-05-02T01:30:35;101333.59;;;19.14;48.45
18784;BME280;9520;50.954;6.968;2023-05-02T01:30:59;101335.59;;;19.09;48.40
18784;BME280;9520;50.954;6.968;2023-05-02T01:31:22;101330.34;;;19.06;48.50
18784;BME280;9520;50.954;6.968;2023-05-02T01:31:48;101339.19;;;19.08;49.08
18784;BME280;9520;50.954;6.968;2023-05-02T01:32:12;101334.72;;;19.08;49.19
18784;BME280;9520;50.954;6.968;2023-05-02T01:32:36;101343.53;;;19.10;49.11
18784;BME280;9520;50.954;6.968;2023-05-02T01:33:01;101344.53;;;19.08;49.24
18784;BME280;9520;50.954;6.968;2023-05-02T01:33:26;101337.44;;;19.07;48.79
18784;BME280;9520;50.954;6.968;2023-05-02T01:33:50;101343.78;;;19.04;48.39
18784;BME280;9520;50.954;6.968;2023-05-02T01:34:12;101343.84;;;19.03;48.61
18784;BME280;9520;50.954;6.968;2023-05-02T01:34:37;101336.69;;;19.03;49.16
18784;BME280;9520;50.954;6.968;2023-05-02T01:35:01;101351.81;;;19.04;49.00
18784;BME280;9520;50.954;6.968;2023-05-02T01:35:25;101355.34;;;19.05;48.84
18784;BME280;9520;50.954;6.968;2023-05-02T01:35:49;101341.28;;;18.99;48.89
18784;BME280;9520;50.954;6.968;2023-05-02T01:36:13;101350.13;;;19.02;48.79
18784;BME280;9520;50.954;6.968;2023-05-02T01:36:39;101350.94;;;19.04;48.71
18784;BME280;9520;50.954;6.968;2023-05-02T01:37:04;101349.16;;;19.04;48.92
18784;BME280;9520;50.954;6.968;2023-05-02T01:37:29;101356.28;;;19.04;49.12
18784;BME280;9520;50.954;6.968;2023-05-02T01:37:51;101350.94;;;19.04;49.55
18784;BME280;9520;50.954;6.968;2023-05-02T01:38:16;101349.16;;;19.04;49.33
18784;BME280;9520;50.954;6.968;2023-05-02T01:38:38;101342.91;;;19.04;49.26
18784;BME280;9520;50.954;6.968;2023-05-02T01:39:06;101352.75;;;19.03;48.85
18784;BME280;9520;50.954;6.968;2023-05-02T01:39:29;101359.88;;;19.03;48.67
18784;BME280;9520;50.954;6.968;2023-05-02T01:39:53;101353.72;;;19.01;49.22
18784;BME280;9520;50.954;6.968;2023-05-02T01:40:19;101344.81;;;19.00;49.30
18784;BME280;9520;50.954;6.968;2023-05-02T01:40:44;101350.28;;;18.97;49.51
18784;BME280;9520;50.954;6.968;2023-05-02T01:41:06;101351.91;;;19.01;49.37
18784;BME280;9520;50.954;6.968;2023-05-02T01:41:31;101359.19;;;18.97;49.16
18784;BME280;9520;50.954;6.968;2023-05-02T01:41:55;101358.13;;;19.02;49.29
18784;BME280;9520;50.954;6.968;2023-05-02T01:42:19;101352.84;;;19.00;49.35
18784;BME280;9520;50.954;6.968;2023-05-02T01:42:42;101360.00;;;18.99;49.25
18784;BME280;9520;50.954;6.968;2023-05-02T01:43:06;101358.28;;;18.98;49.12
18784;BME280;9520;50.954;6.968;2023-05-02T01:43:29;101359.06;;;19.01;49.42
18784;BME280;9520;50.954;6.968;2023-05-02T01:43:56;101365.41;;;18.98;49.29
18784;BME280;9520;50.954;6.968;2023-05-02T01:44:21;101357.50;;;18.95;49.13
18784;BME280;9520;50.954;6.968;2023-05-02T01:44:44;101362.78;;;18.96;48.88
18784;BME280;9520;50.954;6.968;2023-05-02T01:45:08;101364.59;;;18.96;49.26
18784;BME280;9520;50.954;6.968;2023-05-02T01:45:32;101351.16;;;18.97;49.29
18784;BME280;9520;50.954;6.968;2023-05-02T01:45:57;101363.78;;;18.94;48.90
18784;BME280;9520;50.954;6.968;2023-05-02T01:46:21;101359.28;;;18.94;49.02
18784;BME280;9520;50.954;6.968;2023-05-02T01:46:43;101361.03;;;18.95;49.06
18784;BME280;9520;50.954;6.968;2023-05-02T01:47:07;101358.38;;;18.95;49.21
18784;BME280;9520;50.954;6.968;2023-05-02T01:47:32;101361.03;;;18.95;49.40
18784;BME280;9520;50.954;6.968;2023-05-02T01:47:57;101362.78;;;18.96;49.23
18784;BME280;9520;50.954;6.968;2023-05-02T01:48:22;101353.03;;;18.95;49.14
18784;BME280;9520;50.954;6.968;2023-05-02T01:48:47;101358.38;;;18.95;49.02
18784;BME280;9520;50.954;6.968;2023-05-02T01:49:10;101358.38;;;18.95;49.01
18784;BME280;9520;50.954;6.968;2023-05-02T01:49:33;101362.78;;;18.96;49.15
18784;BME280;9520;50.954;6.968;2023-05-02T01:49:57;101357.56;;;18.93;48.90
18784;BME280;9520;50.954;6.968;2023-05-02T01:50:23;101367.25;;;18.96;48.73
18784;BME280;9520;50.954;6.968;2023-05-02T01:50:46;101361.00;;;18.97;48.91
18784;BME280;9520;50.954;6.968;2023-05-02T01:51:12;101351.28;;;18.94;48.61
18784;BME280;9520;50.954;6.968;2023-05-02T01:51:43;101348.72;;;18.91;48.95
18784;BME280;9520;50.954;6.968;2023-05-02T01:52:10;101353.94;;;18.94;49.52
18784;BME280;9520;50.954;6.968;2023-05-02T01:52:36;101348.84;;;18.88;49.47
18784;BME280;9520;50.954;6.968;2023-05-02T01:52:59;101361.97;;;18.94;49.22
18784;BME280;9520;50.954;6.968;2023-05-02T01:53:23;101353.91;;;18.96;48.92
18784;BME280;9520;50.954;6.968;2023-05-02T01:53:47;101358.44;;;18.94;48.82
18784;BME280;9520;50.954;6.968;2023-05-02T01:54:12;101361.88;;;18.97;49.21
18784;BME280;9520;50.954;6.968;2023-05-02T01:54:35;101354.78;;;18.96;48.87
18784;BME280;9520;50.954;6.968;2023-05-02T01:54:58;101359.19;;;18.97;48.72
18784;BME280;9520;50.954;6.968;2023-05-02T01:55:22;101361.00;;;18.97;49.00
18784;BME280;9520;50.954;6.968;2023-05-02T01:55:46;101364.63;;;18.94;49.07
18784;BME280;9520;50.954;6.968;2023-05-02T01:56:09;101363.84;;;18.92;48.97
18784;BME280;9520;50.954;6.968;2023-05-02T01:56:33;101364.78;;;18.91;48.87
18784;BME280;9520;50.954;6.968;2023-05-02T01:56:56;101362.16;;;18.90;49.03
18784;BME280;9520;50.954;6.968;2023-05-02T01:57:20;101363.09;;;18.89;49.26
18784;BME280;9520;50.954;6.968;2023-05-02T01:57:43;101366.56;;;18.91;49.04
18784;BME280;9520;50.954;6.968;2023-05-02T01:58:07;101365.59;;;18.93;49.26
18784;BME280;9520;50.954;6.968;2023-05-02T01:58:31;101361.31;;;18.89;49.40
18784;BME280;9520;50.954;6.968;2023-05-02T01:58:56;101363.03;;;18.90;49.29
18784;BME280;9520;50.954;6.968;2023-05-02T01:59:21;101363.97;;;18.89;49.38
18784;BME280;9520;50.954;6.968;2023-05-02T01:59:46;101365.69;;;18.90;49.59
18784;BME280;9520;50.954;6.968;2023-05-02T02:00:10;101371.03;;;18.90;49.60
18784;BME280;9520;50.954;6.968;2023-05-02T02:00:36;101363.09;;;18.89;49.24
18784;BME280;9520;50.954;6.968;2023-05-02T02:00:59;101373.72;;;18.90;48.97
18784;BME280;9520;50.954;6.968;2023-05-02T02:01:22;101365.78;;;18.89;49.32
18784;BME280;9520;50.954;6.968;2023-05-02T02:01:49;101374.59;;;18.91;49.22
18784;BME280;9520;50.954;6.968;2023-05-02T02:02:13;101371.03;;;18.90;49.32
18784;BME280;9520;50.954;6.968;2023-05-02T02:02:36;101380.84;;;18.90;48.94
18784;BME280;9520;50.954;6.968;2023-05-02T02:03:00;101379.94;;;18.91;49.00
18784;BME280;9520;50.954;6.968;2023-05-02T02:03:23;101374.66;;;18.89;48.64
18784;BME280;9520;50.954;6.968;2023-05-02T02:03:47;101371.31;;;18.84;48.71
18784;BME280;9520;50.954;6.968;2023-05-02T02:04:11;101372.97;;;18.87;48.92
18784;BME280;9520;50.954;6.968;2023-05-02T02:04:36;101383.66;;;18.87;49.19
18784;BME280;9520;50.954;6.968;2023-05-02T02:05:00;101378.31;;;18.87;49.15
18784;BME280;9520;50.954;6.968;2023-05-02T02:05:23;101379.16;;;18.89;49.13
18784;BME280;9520;50.954;6.968;2023-05-02T02:05:47;101382.69;;;18.89;49.40
18784;BME280;9520;50.954;6.968;2023-05-02T02:06:10;101373.72;;;18.90;49.41
18784;BME280;9520;50.954;6.968;2023-05-02T02:06:32;101378.19;;;18.90;49.40
18784;BME280;9520;50.954;6.968;2023-05-02T02:06:59;101377.22;;;18.92;49.36
18784;BME280;9520;50.954;6.968;2023-05-02T02:07:22;101387.91;;;18.92;49.32
18784;BME280;9520;50.954;6.968;2023-05-02T02:07:45;101381.72;;;18.90;48.97
18784;BME280;9520;50.954;6.968;2023-05-02T02:08:07;101381.72;;;18.90;49.09
18784;BME280;9520;50.954;6.968;2023-05-02T02:08:29;101384.41;;;18.90;49.08